Time;durP1;ratioP1;P1;durP2;ratioP2;P2;SDS_P1;SDS_P2;PMS_P1;PMS_P2;Temp;Humidity;BMP_temperature;BMP_pressure;BME280_temperature;BME280_humidity;BME280_pressure;Samples;Min_cycle;Max_cycle;Signal;HPM_P1;HPM_P2
2021/12/06 00:02:19;;;;;;;61.40;31.40;;;;;;;-1.94;90.43;99186.59;106285;1314;139442;-65
2021/12/06 00:04:48;;;;;;;62.10;30.90;;;;;;;-1.91;90.51;99188.73;106419;1317;22457;-65
2021/12/06 00:07:18;;;;;;;75.80;38.10;;;;;;;-1.90;90.47;99187.11;106312;1313;139981;-65
2021/12/06 00:10:07;;;;;;;100.40;41.70;;;;;;;-1.89;90.66;99185.52;106399;1313;22506;-65
2021/12/06 00:12:36;;;;;;;54.10;26.70;;;;;;;-1.87;90.72;99187.16;105731;1316;139567;-65
2021/12/06 00:15:05;;;;;;;91.60;39.20;;;;;;;-1.87;90.72;99184.58;106402;1313;23656;-65
2021/12/06 00:17:38;;;;;;;72.40;33.40;;;;;;;-1.85;90.71;99187.02;106363;1316;22384;-65
2021/12/06 00:20:08;;;;;;;121.30;45.30;;;;;;;-1.83;90.75;99187.30;106266;1319;139268;-65
2021/12/06 00:22:36;;;;;;;60.00;31.70;;;;;;;-1.81;90.87;99181.27;106403;1316;23677;-65
2021/12/06 00:25:05;;;;;;;82.30;35.50;;;;;;;-1.79;91.02;99182.08;105959;1319;138645;-64
2021/12/06 00:27:33;;;;;;;108.00;47.50;;;;;;;-1.77;90.91;99182.69;106427;1319;22477;-65
2021/12/06 00:30:01;;;;;;;65.90;35.00;;;;;;;-1.75;90.94;99177.80;106435;1313;22466;-65
2021/12/06 00:32:30;;;;;;;103.10;41.20;;;;;;;-1.73;91.02;99174.92;106286;1316;138560;-65
2021/12/06 00:34:59;;;;;;;68.80;31.20;;;;;;;-1.71;91.20;99177.57;106445;1314;23334;-65
2021/12/06 00:37:41;;;;;;;83.80;38.80;;;;;;;-1.69;90.98;99177.84;106306;1313;139403;-65
2021/12/06 00:40:11;;;;;;;77.30;36.10;;;;;;;-1.68;91.06;99176.59;106327;1313;22518;-65
2021/12/06 00:42:39;;;;;;;167.80;58.30;;;;;;;-1.66;91.18;99176.90;106291;1314;139491;-65
2021/12/06 00:45:08;;;;;;;72.60;34.50;;;;;;;-1.64;91.39;99169.23;106334;1316;22531;-54
2021/12/06 00:47:37;;;;;;;58.40;30.10;;;;;;;-1.64;91.06;99166.50;105227;1323;22294;-60
2021/12/06 00:50:06;;;;;;;63.90;32.60;;;;;;;-1.62;91.16;99168.73;106056;1317;140046;-59
2021/12/06 00:52:34;;;;;;;51.30;27.40;;;;;;;-1.59;91.17;99164.17;106230;1316;22482;-60
2021/12/06 00:55:03;;;;;;;72.00;35.40;;;;;;;-1.58;91.18;99163.96;106330;1317;139967;-59
2021/12/06 00:57:31;;;;;;;70.70;32.30;;;;;;;-1.56;91.20;99167.67;106320;1316;23794;-60
2021/12/06 00:59:59;;;;;;;59.10;31.30;;;;;;;-1.55;91.41;99165.55;106420;1316;22504;-59
2021/12/06 01:02:27;;;;;;;73.70;37.60;;;;;;;-1.53;91.34;99167.47;106124;1317;139107;-60
2021/12/06 01:04:55;;;;;;;126.90;50.60;;;;;;;-1.53;91.45;99163.27;106148;1320;22417;-60
2021/12/06 01:07:24;;;;;;;90.60;41.40;;;;;;;-1.51;91.54;99162.23;106177;1316;139425;-60
2021/12/06 01:09:52;;;;;;;54.80;30.40;;;;;;;-1.50;91.57;99158.54;106329;1319;23126;-60
2021/12/06 01:12:20;;;;;;;118.40;54.60;;;;;;;-1.50;91.45;99156.20;106095;1319;138178;-60
2021/12/06 01:14:48;;;;;;;65.90;33.60;;;;;;;-1.49;91.56;99153.45;106192;1315;22416;-60
2021/12/06 01:17:17;;;;;;;49.90;28.30;;;;;;;-1.47;91.62;99156.86;106217;1316;22505;-58
2021/12/06 01:19:46;;;;;;;69.60;36.30;;;;;;;-1.45;91.54;99156.46;106099;1316;139323;-58
2021/12/06 01:22:22;;;;;;;95.20;42.00;;;;;;;-1.43;91.66;99155.88;106333;1316;23073;-58
2021/12/06 01:25:04;;;;;;;76.50;35.20;;;;;;;-1.42;91.38;99152.49;106244;1315;138251;-58
2021/12/06 01:27:49;;;;;;;78.50;39.10;;;;;;;-1.41;91.73;99149.55;106197;1319;22483;-58
2021/12/06 01:41:05;;;;;;;64.10;33.40;;;;;;;-1.36;91.76;99132.58;106225;1316;22986;-57
2021/12/06 01:43:34;;;;;;;69.70;36.30;;;;;;;-1.35;91.57;99128.16;106187;1316;138359;-57
2021/12/06 01:46:04;;;;;;;59.60;34.40;;;;;;;-1.34;91.59;99122.17;104720;1316;22657;-59
2021/12/06 01:48:32;;;;;;;66.40;38.80;;;;;;;-1.34;91.70;99115.42;106031;1318;138584;-60
2021/12/06 01:51:00;;;;;;;79.70;40.20;;;;;;;-1.33;91.68;99117.94;106185;1321;22707;-60
2021/12/06 01:53:29;;;;;;;52.80;31.30;;;;;;;-1.33;91.91;99121.64;106276;1315;23222;-60
2021/12/06 01:55:57;;;;;;;56.20;31.40;;;;;;;-1.32;91.89;99120.99;106121;1315;138341;-60
2021/12/06 01:58:26;;;;;;;57.10;33.20;;;;;;;-1.32;91.93;99118.52;106196;1316;22388;-60
2021/12/06 02:00:54;;;;;;;57.90;33.00;;;;;;;-1.29;91.69;99119.27;106034;1318;139065;-60
2021/12/06 02:03:26;;;;;;;54.30;30.20;;;;;;;-1.28;91.83;99127.30;106257;1316;22519;-60
2021/12/06 02:05:55;;;;;;;61.20;33.00;;;;;;;-1.27;91.97;99127.14;106289;1316;22268;-60
2021/12/06 02:08:25;;;;;;;43.90;25.60;;;;;;;-1.26;91.96;99129.13;106111;1316;138165;-60
2021/12/06 02:11:01;;;;;;;76.70;39.80;;;;;;;-1.24;92.02;99129.08;106197;1316;23298;-59
2021/12/06 02:13:35;;;;;;;48.40;27.70;;;;;;;-1.23;91.93;99126.95;105764;1319;139683;-60
2021/12/06 02:16:05;;;;;;;36.20;21.90;;;;;;;-1.22;91.99;99126.84;106222;1315;22457;-59
2021/12/06 02:21:27;;;;;;;52.00;29.00;;;;;;;-1.19;92.16;99121.11;106373;1316;22441;-59
2021/12/06 02:23:56;;;;;;;60.80;34.20;;;;;;;-1.17;91.81;99120.52;106338;1316;22411;-60
2021/12/06 02:26:25;;;;;;;43.80;24.40;;;;;;;-1.15;92.09;99123.52;106137;1316;138246;-59
2021/12/06 02:28:54;;;;;;;50.10;28.50;;;;;;;-1.15;92.17;99119.69;106202;1315;22380;-59
2021/12/06 02:31:23;;;;;;;47.20;27.80;;;;;;;-1.14;92.18;99111.89;106207;1316;139319;-59
2021/12/06 02:33:51;;;;;;;71.70;37.90;;;;;;;-1.14;92.12;99115.26;106203;1317;22476;-59
2021/12/06 02:36:20;;;;;;;54.20;30.80;;;;;;;-1.13;92.18;99113.70;106236;1321;22453;-59
2021/12/06 02:38:48;;;;;;;48.70;26.70;;;;;;;-1.12;92.13;99109.23;106123;1316;138988;-59
2021/12/06 02:41:18;;;;;;;39.00;23.20;;;;;;;-1.11;92.11;99109.20;106319;1316;22519;-60
2021/12/06 02:43:47;;;;;;;58.20;31.30;;;;;;;-1.10;92.20;99114.10;105577;1320;138981;-61
2021/12/06 02:46:15;;;;;;;42.10;24.00;;;;;;;-1.09;92.14;99113.09;105627;1319;22572;-61
2021/12/06 02:48:43;;;;;;;38.30;23.30;;;;;;;-1.08;92.18;99116.84;106036;1316;138521;-61
2021/12/06 02:51:12;;;;;;;32.30;20.00;;;;;;;-1.07;92.27;99120.47;106319;1316;22438;-61
2021/12/06 02:53:40;;;;;;;34.70;20.60;;;;;;;-1.06;92.35;99118.23;106247;1316;22391;-61
2021/12/06 02:59:08;;;;;;;31.00;18.50;;;;;;;-1.02;92.28;99117.84;106066;1316;23129;-59
2021/12/06 03:01:45;;;;;;;28.80;17.40;;;;;;;-1.01;92.30;99114.41;105914;1316;138766;-59
2021/12/06 03:04:14;;;;;;;28.60;17.50;;;;;;;-1.01;92.61;99115.45;106160;1316;23740;-59
2021/12/06 03:06:42;;;;;;;35.70;19.10;;;;;;;-0.99;92.59;99110.10;106166;1316;139549;-59
2021/12/06 03:09:13;;;;;;;28.90;18.60;;;;;;;-1.00;92.54;99112.45;106338;1316;22507;-59
2021/12/06 03:11:45;;;;;;;25.40;16.90;;;;;;;-1.00;92.50;99123.39;106228;1315;22380;-59
2021/12/06 03:14:16;;;;;;;33.50;19.00;;;;;;;-1.01;92.37;99120.42;105556;1319;138721;-59
2021/12/06 03:16:45;;;;;;;31.50;18.60;;;;;;;-1.00;92.46;99119.52;106252;1316;23200;-59
2021/12/06 03:19:14;;;;;;;22.60;14.60;;;;;;;-1.00;92.41;99122.19;106139;1316;138596;-59
2021/12/06 03:21:42;;;;;;;25.50;15.90;;;;;;;-1.00;92.46;99125.85;106256;1315;22446;-59
2021/12/06 03:24:11;;;;;;;28.90;17.40;;;;;;;-1.00;92.76;99127.09;105250;1319;22440;-58
2021/12/06 03:26:40;;;;;;;26.50;16.90;;;;;;;-0.99;92.38;99126.14;106159;1316;138262;-61
2021/12/06 03:29:08;;;;;;;27.00;16.70;;;;;;;-0.99;92.39;99125.41;106168;1316;22370;-61
2021/12/06 03:31:36;;;;;;;28.50;18.30;;;;;;;-0.99;92.50;99125.95;106168;1316;138279;-61
2021/12/06 03:34:06;;;;;;;26.60;15.40;;;;;;;-1.00;92.40;99128.48;106308;1316;22484;-61
2021/12/06 03:36:35;;;;;;;60.20;32.60;;;;;;;-0.99;92.54;99133.30;106145;1316;140504;-59
2021/12/06 03:39:07;;;;;;;56.60;34.00;;;;;;;-0.99;92.46;99137.91;106205;1316;23598;-60
2021/12/06 03:41:35;;;;;;;34.50;20.90;;;;;;;-0.99;92.67;99136.96;106284;1316;22245;-60
2021/12/06 03:44:04;;;;;;;37.60;21.70;;;;;;;-0.99;92.56;99140.35;106143;1316;138335;-60
2021/12/06 03:46:32;;;;;;;34.20;20.80;;;;;;;-0.99;92.73;99143.55;106233;1321;22499;-60
2021/12/06 03:49:12;;;;;;;37.00;21.80;;;;;;;-0.98;92.44;99141.01;106270;1316;139641;-60
2021/12/06 03:51:43;;;;;;;31.80;20.30;;;;;;;-0.99;92.59;99138.38;106335;1316;22473;-60
2021/12/06 03:54:16;;;;;;;37.70;22.00;;;;;;;-0.99;92.39;99140.18;106306;1317;22457;-60
2021/12/06 03:56:45;;;;;;;33.10;19.90;;;;;;;-1.00;92.63;99137.48;106234;1316;138070;-60
2021/12/06 03:59:13;;;;;;;34.60;21.10;;;;;;;-1.01;92.72;99135.44;106227;1316;23263;-60
2021/12/06 04:01:42;;;;;;;36.60;20.00;;;;;;;-1.01;92.81;99136.93;105952;1316;173234;-60
2021/12/06 04:04:11;;;;;;;33.80;20.70;;;;;;;-1.02;92.64;99125.41;106230;1316;22278;-60
2021/12/06 04:06:40;;;;;;;35.30;20.30;;;;;;;-1.03;92.67;99123.17;106233;1316;138561;-61
2021/12/06 04:09:08;;;;;;;42.10;23.80;;;;;;;-1.00;92.65;99122.73;106242;1315;22647;-60
2021/12/06 04:11:36;;;;;;;38.60;22.90;;;;;;;-1.01;92.79;99123.40;106230;1316;23222;-61
2021/12/06 04:14:05;;;;;;;32.80;20.50;;;;;;;-1.01;92.75;99124.62;105797;1316;138306;-60
2021/12/06 04:16:34;;;;;;;44.70;26.00;;;;;;;-1.01;92.90;99123.77;106272;1320;22403;-60
2021/12/06 04:19:03;;;;;;;39.80;23.20;;;;;;;-1.01;92.88;99121.37;106115;1315;139210;-61
2021/12/06 04:21:31;;;;;;;32.00;20.30;;;;;;;-1.01;92.91;99120.99;106224;1316;22475;-61
2021/12/06 04:23:59;;;;;;;37.60;21.30;;;;;;;-1.01;92.75;99123.71;106378;1316;22504;-60
2021/12/06 04:26:28;;;;;;;38.90;22.30;;;;;;;-1.01;92.95;99126.77;106145;1316;138756;-61
2021/12/06 04:29:00;;;;;;;32.40;19.90;;;;;;;-1.00;92.73;99131.93;106241;1315;22412;-61
2021/12/06 04:31:38;;;;;;;40.60;23.50;;;;;;;-1.00;93.01;99126.80;106102;1316;138278;-60
2021/12/06 04:34:07;;;;;;;35.50;21.50;;;;;;;-1.01;92.76;99126.73;106354;1315;23131;-60
2021/12/06 04:36:38;;;;;;;38.20;23.30;;;;;;;-1.02;92.95;99124.95;103769;1316;138416;-60
2021/12/06 04:39:08;;;;;;;40.10;24.60;;;;;;;-1.03;93.09;99121.32;105324;1320;23633;-60
2021/12/06 04:41:36;;;;;;;41.30;25.80;;;;;;;-1.05;92.83;99119.41;106224;1318;23085;-61
2021/12/06 04:44:05;;;;;;;39.90;23.50;;;;;;;-1.08;92.83;99119.52;105406;1316;139142;-61
2021/12/06 04:46:34;;;;;;;36.20;21.30;;;;;;;-1.09;92.83;99117.36;105837;1316;22487;-60
2021/12/06 04:49:03;;;;;;;40.10;23.30;;;;;;;-1.10;92.85;99122.82;106138;1316;138511;-61
2021/12/06 04:51:32;;;;;;;38.80;22.60;;;;;;;-1.12;93.10;99131.94;106070;1320;22643;-61
2021/12/06 04:54:00;;;;;;;35.80;20.70;;;;;;;-1.13;93.03;99130.52;106190;1316;22481;-61
2021/12/06 04:56:35;;;;;;;39.70;22.40;;;;;;;-1.13;93.06;99135.47;106176;1316;138642;-61
2021/12/06 04:59:11;;;;;;;38.00;20.40;;;;;;;-1.12;93.15;99130.98;106284;1316;23088;-60
2021/12/06 05:01:40;;;;;;;36.60;20.70;;;;;;;-1.13;93.26;99136.49;106125;1320;138033;-60
2021/12/06 05:04:14;;;;;;;38.30;20.10;;;;;;;-1.11;93.25;99139.39;106193;1316;22527;-60
2021/12/06 05:06:43;;;;;;;37.10;20.30;;;;;;;-1.10;93.12;99138.16;103451;1319;138883;-59
2021/12/06 05:09:18;;;;;;;39.00;20.40;;;;;;;-1.09;93.22;99144.10;106314;1316;22265;-61
2021/12/06 05:11:48;;;;;;;43.00;24.80;;;;;;;-1.08;93.25;99147.02;106260;1315;23028;-61
2021/12/06 05:14:16;;;;;;;37.10;21.70;;;;;;;-1.07;93.14;99141.19;106239;1315;139835;-61
2021/12/06 05:16:44;;;;;;;44.00;26.00;;;;;;;-1.07;93.35;99139.17;106198;1318;22608;-61
2021/12/06 05:19:13;;;;;;;45.50;25.60;;;;;;;-1.06;93.15;99137.66;106089;1315;140157;-61
2021/12/06 05:21:42;;;;;;;47.80;24.80;;;;;;;-1.07;93.31;99140.42;106234;1315;22638;-60
2021/12/06 05:24:10;;;;;;;49.80;25.30;;;;;;;-1.07;93.10;99139.18;106313;1315;22584;-60
2021/12/06 05:26:38;;;;;;;56.50;28.00;;;;;;;-1.07;93.32;99144.00;106199;1315;138374;-61
2021/12/06 05:29:08;;;;;;;83.20;39.90;;;;;;;-1.07;93.29;99140.05;106238;1319;23064;-61
2021/12/06 05:31:40;;;;;;;63.40;35.50;;;;;;;-1.06;93.24;99141.45;106222;1316;138556;-60
2021/12/06 05:34:17;;;;;;;106.00;55.90;;;;;;;-1.05;92.98;99146.89;106181;1316;22450;-61
2021/12/06 05:36:45;;;;;;;120.70;49.10;;;;;;;-1.04;93.45;99146.20;106220;1315;139378;-61
2021/12/06 05:39:13;;;;;;;116.70;50.30;;;;;;;-1.03;93.23;99148.42;106231;1315;22514;-62
2021/12/06 05:41:42;;;;;;;94.90;37.40;;;;;;;-1.04;93.35;99150.69;106321;1316;23249;-61
2021/12/06 05:44:10;;;;;;;54.00;27.50;;;;;;;-1.02;93.24;99150.08;106168;1316;139923;-61
2021/12/06 05:46:38;;;;;;;102.00;39.10;;;;;;;-1.01;93.10;99152.60;106330;1315;22462;-61
2021/12/06 05:49:06;;;;;;;93.30;41.50;;;;;;;-1.00;93.27;99149.91;106215;1314;138521;-61
2021/12/06 05:51:34;;;;;;;56.90;30.70;;;;;;;-0.99;93.22;99148.60;106306;1315;22458;-62
2021/12/06 05:54:02;;;;;;;78.80;32.50;;;;;;;-0.99;93.28;99149.84;106245;1315;23611;-62
2021/12/06 05:56:30;;;;;;;66.30;32.70;;;;;;;-0.99;93.55;99151.77;106224;1315;138595;-62
2021/12/06 05:58:58;;;;;;;64.10;31.00;;;;;;;-0.99;93.34;99155.11;106188;1316;23506;-62
2021/12/06 06:01:30;;;;;;;76.30;34.20;;;;;;;-0.98;93.71;99154.09;106169;1315;139135;-62
2021/12/06 06:04:01;;;;;;;55.80;27.00;;;;;;;-0.96;93.51;99158.71;106448;1316;22450;-61
2021/12/06 06:06:33;;;;;;;63.20;34.40;;;;;;;-0.96;93.40;99158.51;104003;1315;139365;-58
2021/12/06 06:09:01;;;;;;;97.20;52.00;;;;;;;-0.95;93.52;99162.48;106176;1315;22470;-61
2021/12/06 06:11:29;;;;;;;77.30;44.00;;;;;;;-0.95;93.35;99161.08;106225;1315;22239;-61
2021/12/06 06:14:02;;;;;;;64.40;36.40;;;;;;;-0.96;93.45;99161.52;106169;1316;138787;-61
2021/12/06 06:16:33;;;;;;;90.20;44.70;;;;;;;-0.94;93.68;99161.50;106293;1316;22499;-61
2021/12/06 06:19:01;;;;;;;147.20;57.80;;;;;;;-0.93;93.62;99167.96;106176;1315;139304;-61
2021/12/06 06:21:30;;;;;;;93.00;44.00;;;;;;;-0.92;93.64;99167.11;106306;1315;22461;-61
2021/12/06 06:23:58;;;;;;;92.00;44.80;;;;;;;-0.92;93.59;99164.80;106319;1316;22507;-61
2021/12/06 06:26:26;;;;;;;60.70;30.10;;;;;;;-0.90;93.72;99170.27;106216;1315;138115;-60
2021/12/06 06:28:54;;;;;;;61.20;31.80;;;;;;;-0.90;93.70;99175.37;106323;1316;22479;-61
2021/12/06 06:31:22;;;;;;;59.00;31.10;;;;;;;-0.90;93.92;99174.54;106261;1320;139009;-61
2021/12/06 06:33:50;;;;;;;55.70;28.70;;;;;;;-0.90;93.55;99173.48;106243;1315;22604;-61
2021/12/06 06:36:18;;;;;;;63.20;30.10;;;;;;;-0.90;93.87;99167.17;106343;1315;22538;-60
2021/12/06 06:38:53;;;;;;;63.20;30.80;;;;;;;-0.89;93.60;99170.07;106255;1319;138080;-61
2021/12/06 06:41:21;;;;;;;59.30;29.30;;;;;;;-0.87;93.95;99164.56;106294;1315;22634;-61
2021/12/06 06:43:50;;;;;;;65.20;32.00;;;;;;;-0.86;93.93;99165.42;106244;1315;138417;-61
2021/12/06 06:46:18;;;;;;;57.60;30.00;;;;;;;-0.85;93.80;99170.45;106409;1316;22519;-61
2021/12/06 06:48:46;;;;;;;58.80;29.60;;;;;;;-0.84;93.80;99172.27;105701;1316;139624;-61
2021/12/06 06:51:14;;;;;;;64.20;31.70;;;;;;;-0.83;93.73;99171.98;106426;1316;22546;-61
2021/12/06 06:53:43;;;;;;;66.20;31.30;;;;;;;-0.83;93.93;99170.55;106313;1316;22470;-61
2021/12/06 06:56:11;;;;;;;61.80;31.80;;;;;;;-0.81;93.85;99176.98;106299;1316;138704;-61
2021/12/06 06:58:40;;;;;;;64.30;32.30;;;;;;;-0.80;94.01;99187.13;106433;1315;22433;-61
2021/12/06 07:01:08;;;;;;;65.30;33.10;;;;;;;-0.79;94.28;99185.40;106110;1313;138428;-60
2021/12/06 07:03:36;;;;;;;65.70;29.50;;;;;;;-0.77;94.05;99182.50;106429;1319;22547;-61
2021/12/06 07:06:05;;;;;;;60.90;28.10;;;;;;;-0.77;94.04;99184.39;106257;1316;22379;-61
2021/12/06 07:08:33;;;;;;;65.10;29.60;;;;;;;-0.75;93.99;99186.02;106282;1316;139218;-60
2021/12/06 07:11:05;;;;;;;70.50;31.70;;;;;;;-0.74;93.93;99181.87;106327;1316;22461;-61
2021/12/06 07:13:38;;;;;;;60.60;31.10;;;;;;;-0.73;93.97;99177.19;106348;1316;138849;-61
2021/12/06 07:16:06;;;;;;;66.80;31.00;;;;;;;-0.72;94.30;99178.29;106437;1316;22390;-60
2021/12/06 07:18:36;;;;;;;67.30;32.50;;;;;;;-0.71;94.21;99176.36;106385;1317;139727;-60
2021/12/06 07:21:04;;;;;;;80.50;32.60;;;;;;;-0.70;94.48;99174.98;106438;1316;22492;-61
2021/12/06 07:23:38;;;;;;;53.80;27.60;;;;;;;-0.68;94.43;99174.29;106446;1316;22641;-60
2021/12/06 07:26:10;;;;;;;72.20;30.20;;;;;;;-0.67;94.20;99172.33;106301;1316;138249;-60
2021/12/06 07:28:38;;;;;;;59.20;28.00;;;;;;;-0.65;94.69;99174.85;106169;1316;22463;-60
2021/12/06 07:31:08;;;;;;;58.40;28.00;;;;;;;-0.62;94.15;99178.26;106257;1316;138908;-60
2021/12/06 07:33:37;;;;;;;68.20;32.40;;;;;;;-0.59;94.36;99181.86;106427;1316;22633;-60
2021/12/06 07:36:05;;;;;;;67.00;30.30;;;;;;;-0.57;94.32;99179.38;106424;1316;22444;-61
2021/12/06 07:38:36;;;;;;;70.70;32.20;;;;;;;-0.56;94.39;99176.89;106373;1317;139571;-60
2021/12/06 07:41:10;;;;;;;62.70;27.80;;;;;;;-0.55;94.44;99184.71;106430;1317;22496;-60
2021/12/06 07:43:38;;;;;;;62.60;29.00;;;;;;;-0.53;94.37;99184.73;106237;1315;138673;-60
2021/12/06 07:46:06;;;;;;;63.60;28.60;;;;;;;-0.52;94.51;99188.77;106422;1316;23059;-61
2021/12/06 07:48:34;;;;;;;54.70;26.60;;;;;;;-0.51;94.41;99190.88;105797;1313;139587;-61
2021/12/06 07:51:05;;;;;;;68.80;31.20;;;;;;;-0.49;94.35;99196.70;106355;1313;23238;-61
2021/12/06 07:53:34;;;;;;;77.30;34.80;;;;;;;-0.46;94.52;99199.41;106218;1316;22469;-61
2021/12/06 07:56:03;;;;;;;62.30;30.10;;;;;;;-0.45;94.71;99197.48;105976;1316;139065;-61
2021/12/06 07:58:32;;;;;;;67.00;31.60;;;;;;;-0.44;94.78;99199.10;106444;1316;22398;-60
2021/12/06 08:01:00;;;;;;;63.80;32.20;;;;;;;-0.43;94.76;99199.98;106003;1313;138426;-61
2021/12/06 08:04:24;;;;;;;69.40;31.90;;;;;;;-0.40;94.60;99198.16;99410;1358;545110;-59
2021/12/06 08:06:52;;;;;;;74.40;34.30;;;;;;;-0.41;94.61;99202.30;105206;1325;140954;-60
2021/12/06 08:09:20;;;;;;;62.30;29.90;;;;;;;-0.40;94.67;99204.70;104971;1328;22488;-60
2021/12/06 08:11:49;;;;;;;63.20;29.90;;;;;;;-0.40;94.60;99213.11;105040;1329;22524;-60
2021/12/06 08:14:17;;;;;;;64.20;28.70;;;;;;;-0.40;94.76;99219.61;105053;1328;138639;-59
2021/12/06 08:16:45;;;;;;;62.80;28.00;;;;;;;-0.37;94.82;99222.44;105138;1329;22467;-57
2021/12/06 08:19:13;;;;;;;64.00;29.00;;;;;;;-0.35;94.92;99217.23;105193;1325;137812;-57
2021/12/06 08:21:41;;;;;;;59.40;29.70;;;;;;;-0.32;94.90;99214.08;105391;1325;23135;-57
2021/12/06 08:24:09;;;;;;;60.00;27.70;;;;;;;-0.29;94.80;99212.62;104669;1325;22601;-57
2021/12/06 08:26:39;;;;;;;63.00;29.20;;;;;;;-0.28;94.93;99214.42;105190;1325;137711;-57
2021/12/06 08:29:07;;;;;;;57.00;27.20;;;;;;;-0.26;94.74;99211.84;105407;1325;23420;-57
2021/12/06 08:31:37;;;;;;;58.00;26.50;;;;;;;-0.25;94.64;99209.91;105288;1326;139410;-57
2021/12/06 08:34:05;;;;;;;67.40;31.10;;;;;;;-0.23;94.92;99207.58;105406;1325;22458;-57
2021/12/06 08:36:33;;;;;;;71.50;32.20;;;;;;;-0.22;94.57;99200.30;106078;1319;138650;-57
2021/12/06 08:39:01;;;;;;;70.60;30.90;;;;;;;-0.22;94.83;99195.11;105376;1318;23757;-58
2021/12/06 08:41:30;;;;;;;61.30;29.90;;;;;;;-0.22;94.92;99194.20;106149;1318;23736;-57
2021/12/06 08:44:01;;;;;;;62.40;28.60;;;;;;;-0.24;94.89;99187.77;105950;1318;137851;-57
2021/12/06 08:46:31;;;;;;;76.70;33.60;;;;;;;-0.23;95.03;99184.73;106102;1319;22512;-57
2021/12/06 08:49:02;;;;;;;62.80;32.00;;;;;;;-0.23;95.08;99181.48;105984;1318;138069;-57
2021/12/06 08:51:33;;;;;;;63.30;30.30;;;;;;;-0.22;95.03;99177.60;105696;1322;23234;-57
2021/12/06 08:54:02;;;;;;;71.70;32.30;;;;;;;-0.21;94.82;99180.33;106146;1319;22554;-57
2021/12/06 08:56:33;;;;;;;63.90;29.50;;;;;;;-0.20;94.81;99176.76;105808;1322;138644;-57
2021/12/06 08:59:01;;;;;;;77.80;34.00;;;;;;;-0.18;94.86;99168.37;106090;1319;22586;-57
2021/12/06 09:01:30;;;;;;;62.30;29.00;;;;;;;-0.18;94.93;99161.20;105994;1318;138762;-57
2021/12/06 09:04:18;;;;;;;64.20;28.70;;;;;;;-0.17;94.93;99159.31;106076;1318;22396;-57
2021/12/06 09:06:47;;;;;;;83.30;33.00;;;;;;;-0.18;95.11;99152.19;105958;1318;140081;-57
2021/12/06 09:09:29;;;;;;;74.70;32.20;;;;;;;-0.16;95.30;99150.05;106064;1318;22447;-57
2021/12/06 09:11:58;;;;;;;84.20;31.40;;;;;;;-0.17;94.95;99148.12;106075;1318;22453;-57
2021/12/06 09:14:28;;;;;;;79.50;33.30;;;;;;;-0.16;95.03;99147.55;105973;1318;138301;-57
2021/12/06 09:16:56;;;;;;;79.30;34.10;;;;;;;-0.16;94.94;99146.48;106070;1318;22585;-57
2021/12/06 09:19:24;;;;;;;73.30;33.20;;;;;;;-0.15;95.31;99142.77;105435;1322;138306;-57
2021/12/06 09:21:52;;;;;;;85.50;35.20;;;;;;;-0.14;95.22;99135.67;106151;1318;22447;-57
2021/12/06 09:24:20;;;;;;;85.60;34.30;;;;;;;-0.14;95.23;99133.61;106081;1319;22466;-58
2021/12/06 09:26:49;;;;;;;69.20;31.60;;;;;;;-0.14;95.18;99127.06;105965;1319;138264;-57
2021/12/06 09:29:17;;;;;;;65.10;32.00;;;;;;;-0.14;95.30;99129.05;106063;1319;22413;-57
2021/12/06 09:31:46;;;;;;;69.10;32.60;;;;;;;-0.12;95.21;99121.88;105923;1318;137831;-57
2021/12/06 09:34:14;;;;;;;78.00;35.30;;;;;;;-0.12;95.44;99121.59;105939;1319;23421;-58
2021/12/06 09:36:42;;;;;;;74.70;34.90;;;;;;;-0.11;95.42;99121.80;105797;1321;138096;-57
2021/12/06 09:39:13;;;;;;;73.50;33.80;;;;;;;-0.12;95.39;99116.73;106040;1318;22580;-57
2021/12/06 09:41:41;;;;;;;89.00;33.80;;;;;;;-0.11;95.28;99116.62;106087;1318;22279;-57
2021/12/06 09:44:10;;;;;;;86.30;33.80;;;;;;;-0.11;95.73;99111.97;105947;1323;139594;-57
2021/12/06 09:46:38;;;;;;;76.80;30.20;;;;;;;-0.11;95.47;99110.77;106089;1318;22478;-58
2021/12/06 09:49:09;;;;;;;91.80;34.40;;;;;;;-0.12;95.46;99111.95;106001;1319;138180;-58
2021/12/06 09:51:39;;;;;;;81.50;34.00;;;;;;;-0.12;95.40;99105.52;106067;1319;22411;-57
2021/12/06 09:54:07;;;;;;;70.50;30.50;;;;;;;-0.12;95.82;99102.02;106081;1322;22367;-57
2021/12/06 09:56:41;;;;;;;67.10;32.60;;;;;;;-0.12;95.37;99098.85;106009;1321;138529;-57
2021/12/06 09:59:10;;;;;;;103.90;34.80;;;;;;;-0.12;95.62;99104.63;106028;1317;22487;-57
2021/12/06 10:01:45;;;;;;;73.40;32.80;;;;;;;-0.10;95.68;99103.89;105870;1319;138318;-58
2021/12/06 10:04:15;;;;;;;64.20;28.10;;;;;;;-0.11;95.61;99098.81;106124;1319;22451;-58
2021/12/06 10:06:44;;;;;;;68.60;32.00;;;;;;;-0.11;95.84;99096.02;105980;1323;138075;-57
2021/12/06 10:09:12;;;;;;;85.20;33.20;;;;;;;-0.10;95.66;99092.81;106091;1318;22552;-58
2021/12/06 10:11:41;;;;;;;86.90;34.70;;;;;;;-0.08;95.75;99094.80;106108;1318;22570;-58
2021/12/06 10:14:09;;;;;;;68.00;31.40;;;;;;;-0.07;95.74;99091.73;105978;1318;138861;-58
2021/12/06 10:16:37;;;;;;;67.30;31.60;;;;;;;-0.07;95.64;99090.33;106115;1319;22496;-58
2021/12/06 10:19:06;;;;;;;68.40;29.00;;;;;;;-0.08;95.78;99095.02;105938;1319;138046;-58
2021/12/06 10:21:36;;;;;;;64.30;29.70;;;;;;;-0.07;95.49;99097.61;105962;1318;22737;-58
2021/12/06 10:24:08;;;;;;;63.60;28.20;;;;;;;-0.07;95.84;99091.89;106014;1319;22464;-58
2021/12/06 10:26:37;;;;;;;57.10;28.10;;;;;;;-0.06;95.68;99092.42;105969;1318;138012;-57
2021/12/06 10:29:09;;;;;;;66.70;30.60;;;;;;;-0.04;95.75;99093.84;106120;1318;22479;-58
2021/12/06 10:31:41;;;;;;;70.60;30.10;;;;;;;-0.04;95.79;99089.35;105923;1318;137671;-58
2021/12/06 10:34:14;;;;;;;61.40;28.60;;;;;;;-0.03;95.93;99086.48;106082;1318;22298;-57
2021/12/06 10:36:42;;;;;;;83.50;30.50;;;;;;;-0.01;95.86;99080.59;106008;1319;138483;-57
2021/12/06 10:39:10;;;;;;;61.40;28.50;;;;;;;-0.00;95.76;99079.55;106102;1319;22563;-59
2021/12/06 10:41:39;;;;;;;58.30;27.90;;;;;;;0.01;95.79;99075.46;106117;1319;22511;-58
2021/12/06 10:44:09;;;;;;;58.10;27.10;;;;;;;0.03;95.86;99070.98;105956;1319;138613;-58
2021/12/06 10:46:41;;;;;;;53.20;26.20;;;;;;;0.05;95.91;99070.49;106092;1319;22469;-59
2021/12/06 10:49:13;;;;;;;60.00;27.30;;;;;;;0.05;95.86;99073.67;105845;1319;137915;-58
2021/12/06 10:51:41;;;;;;;60.10;28.00;;;;;;;0.04;95.58;99074.98;106076;1318;22476;-58
2021/12/06 10:54:20;;;;;;;59.40;29.30;;;;;;;0.03;95.81;99073.20;106113;1318;22379;-57
2021/12/06 10:56:52;;;;;;;57.90;26.50;;;;;;;0.03;95.75;99075.77;106021;1318;138415;-56
2021/12/06 10:59:23;;;;;;;57.60;27.10;;;;;;;0.02;95.96;99083.38;106071;1322;22300;-57
2021/12/06 11:01:53;;;;;;;67.80;30.10;;;;;;;0.02;96.17;99088.44;105447;1319;137980;-57
2021/12/06 11:04:24;;;;;;;67.10;27.10;;;;;;;0.01;95.76;99088.48;104925;1326;22587;-57
2021/12/06 11:06:54;;;;;;;57.30;25.60;;;;;;;-0.01;95.94;99084.46;105830;1324;138290;-58
2021/12/06 11:09:24;;;;;;;53.10;24.80;;;;;;;-0.02;95.80;99086.19;106146;1319;22437;-57
2021/12/06 11:11:55;;;;;;;51.10;25.40;;;;;;;-0.02;96.01;99083.35;106023;1318;22847;-57
2021/12/06 11:14:25;;;;;;;54.40;25.90;;;;;;;0.01;95.72;99083.13;105688;1319;139690;-57
2021/12/06 11:16:57;;;;;;;55.90;27.10;;;;;;;0.02;95.96;99080.41;105812;1321;22518;-57
2021/12/06 11:19:26;;;;;;;58.70;26.70;;;;;;;0.00;95.96;99078.23;105919;1319;138359;-56
2021/12/06 11:22:18;;;;;;;56.70;26.90;;;;;;;-0.00;95.98;99076.77;106159;1319;23323;-57
2021/12/06 11:24:48;;;;;;;48.40;23.80;;;;;;;-0.01;95.96;99070.01;106022;1319;139004;-57
2021/12/06 11:27:26;;;;;;;52.60;26.10;;;;;;;-0.01;96.07;99070.41;106100;1319;22387;-57
2021/12/06 11:30:03;;;;;;;52.50;25.60;;;;;;;-0.01;95.99;99067.98;106067;1318;23416;-57
2021/12/06 11:32:38;;;;;;;58.00;27.60;;;;;;;-0.01;95.98;99063.73;106028;1318;138394;-58
2021/12/06 11:35:11;;;;;;;54.00;25.10;;;;;;;-0.01;95.96;99065.64;106070;1323;23149;-57
2021/12/06 11:37:43;;;;;;;64.40;27.70;;;;;;;-0.01;96.01;99063.90;106077;1319;138071;-57